• Join FlightAware (Why Join?)
  • Login
  • US Flag 
07:02PM EDT


 

Airport Tracker/Info


-or-


 

Live Flight TrackerFlight Track Log ✈ N682DG ✈ 08-May-2012 ✈ KGGG - KPWA

Flight Track Log - Related Links

Times and Time Zones

All times are in EDT time to prevent confusion due to time zone crossing. See the N682DG flight status page for this flight to view local times or setup timezone preferences in your user account.

Time Position Orientation Groundspeed Altitude Reporting Facility
EDT Latitude Longitude Course Direction KTS MPH feet Rate Location/Type
05:40PM 32.4894 -94.7264 320° Northwest 229 264 6,400  Level Fort Worth Center
05:44PM 32.7325 -94.9733 318° Northwest 326 375 13,200 1,800 Climbing Fort Worth Center
05:45PM 32.8008 -95.0458 318° Northwest 326 375 15,600 2,340 Climbing Fort Worth Center
05:46PM 32.8667 -95.1158 319° Northwest 326 375 17,900 2,400 Climbing Fort Worth Center
05:47PM 32.9369 -95.1883 318° Northwest 321 369 20,400 2,160 Climbing Fort Worth Center
05:48PM 33.0028 -95.2583 301° West 321 369 22,300 1,260 Climbing Fort Worth Center
05:49PM 33.0503 -95.3539 299° West 326 375 23,000 600 Climbing Fort Worth Center
05:50PM 33.1000 -95.4619 301° West 345 397 23,600 900 Climbing Fort Worth Center
05:51PM 33.1408 -95.5428 305° West 355 409 24,900 1,500 Climbing Fort Worth Center
05:52PM 33.2072 -95.6581 315° West 355 409 26,600 1,380 Climbing Fort Worth Center
05:53PM 33.2775 -95.7436 321° Northwest 348 400 27,700 660 Climbing Fort Worth Center
05:54PM 33.3578 -95.8217 322° Northwest 363 418 28,000 120 Climbing Fort Worth Center
05:55PM 33.4442 -95.9025 322° Northwest 383 441 28,000  Level Fort Worth Center
05:56PM 33.5414 -95.9928 321° Northwest 398 458 28,000  Level Fort Worth Center
05:57PM 33.6383 -96.0861 321° Northwest 404 465 28,000  Level Fort Worth Center
05:58PM 33.7228 -96.1672 322° Northwest 396 456 28,000  Level Fort Worth Center
05:59PM 33.8111 -96.2511 322° Northwest 401 461 28,000  Level Fort Worth Center
06:00PM 33.9081 -96.3422 322° Northwest 396 456 28,000 -300 Level Fort Worth Center
06:01PM 33.9964 -96.4264 321° Northwest 403 464 27,400 -840 Descending Fort Worth Center
06:02PM 34.0803 -96.5083 318° Northwest 399 459 26,400 -1,200 Descending Fort Worth Center
06:03PM 34.1603 -96.5953 322° Northwest 394 453 25,100 -1,920 Descending Fort Worth Center
06:04PM 34.2422 -96.6725 323° Northwest 385 443 22,600 -2,280 Descending Fort Worth Center
06:05PM 34.3239 -96.7472 321° Northwest 371 427 20,600 -1,620 Descending Fort Worth Center
06:06PM 34.3869 -96.8094 320° Northwest 371 427 19,400 -1,320 Descending Fort Worth Center
06:07PM 34.4706 -96.8947 323° Northwest 371 427 18,000 -1,260 Descending Fort Worth Center
06:08PM 34.5439 -96.9622 321° Northwest 356 410 16,900 -1,320 Descending Fort Worth Center
06:09PM 34.6192 -97.0350 321° Northwest 349 402 15,400 -1,680 Descending Fort Worth Center
06:10PM 34.7197 -97.1331 320° Northwest 342 394 13,200 -1,680 Descending Fort Worth Center
06:11PM 34.7761 -97.1911 322° Northwest 332 382 11,800 -1,200 Descending Fort Worth Center
06:12PM 34.8389 -97.2517 327° Northwest 312 359 10,900 -1,200 Descending Fort Worth Center
06:13PM 34.9119 -97.3097 316° Northwest 297 342 9,500 -1,380 Descending Fort Worth Center
06:14PM 34.9661 -97.3731 313° West 284 327 8,200 -1,440 Descending Fort Worth Center
06:15PM 34.9975 -97.4136 315° West 276 318 7,300 -1,440 Descending Fort Worth Center
06:16PM 35.0475 -97.4744 318° Northwest 276 318 6,100 -960 Descending Fort Worth Center
06:16PM 35.0725 -97.5022 313° West 268 308 6,000 -120 Descending Fort Worth Center
06:17PM 35.0994 -97.5378 315° West 265 305 6,000  Level Fort Worth Center
06:17PM 35.1244 -97.5683 333° Northwest 268 308 6,000 -240 Level Fort Worth Center
06:18PM 35.1578 -97.5889 340° North 264 304 5,800 -660 Descending Fort Worth Center
06:19PM 35.2081 -97.6117 341° North 253 291 5,200 -720 Descending Fort Worth Center
06:20PM 35.2642 -97.6347 343° North 252 290 4,600 -720 Descending Fort Worth Center
06:20PM 35.3058 -97.6500 360° North 238 274 4,200 -420 Descending Fort Worth Center
06:21PM 35.3683 -97.6503 360° North 224 258 4,000 -480 Descending Fort Worth Center
06:22PM 35.4228 -97.6506 360° North 180 207 3,300 -840 Descending Fort Worth Center
06:23PM 35.4644 -97.6506 North 151 174 2,400 -840 Descending Fort Worth Center
06:24PM 35.5103 -97.6481 North 142 163 1,600 -720 Descending Fort Worth Center